createdAt,value
2023-04-01T00:00:53.856Z,10.88
2023-04-01T00:03:23.680Z,10.87
2023-04-01T00:05:52.157Z,10.86
2023-04-01T00:08:20.359Z,10.86
2023-04-01T00:10:48.407Z,10.85
2023-04-01T00:13:16.664Z,10.87
2023-04-01T00:15:45.478Z,10.89
2023-04-01T00:18:14.362Z,10.89
2023-04-01T00:20:46.114Z,10.89
2023-04-01T00:23:14.672Z,10.89
2023-04-01T00:25:42.891Z,10.90
2023-04-01T00:28:11.172Z,10.91
2023-04-01T00:30:39.260Z,10.93
2023-04-01T00:33:07.303Z,10.94
2023-04-01T00:35:35.790Z,10.94
2023-04-01T00:38:04.197Z,10.94
2023-04-01T00:40:34.839Z,10.93
2023-04-01T00:43:10.718Z,10.93
2023-04-01T00:45:41.290Z,10.93
2023-04-01T00:48:13.795Z,10.93
2023-04-01T00:50:45.464Z,10.93
2023-04-01T00:53:14.745Z,10.95
2023-04-01T00:55:50.346Z,10.95
2023-04-01T00:58:22.232Z,10.96
2023-04-01T01:00:51.428Z,10.98
2023-04-01T01:03:20.488Z,10.99
2023-04-01T01:06:08.665Z,11.00
2023-04-01T01:08:50.307Z,11.02
2023-04-01T01:11:37.091Z,11.01
2023-04-01T01:14:22.740Z,11.01
2023-04-01T01:17:00.473Z,11.01
2023-04-01T01:19:52.836Z,11.01
2023-04-01T01:22:50.352Z,11.00
2023-04-01T01:25:41.644Z,10.99
2023-04-01T01:28:38.643Z,10.98
2023-04-01T01:31:16.497Z,10.98
2023-04-01T01:34:06.988Z,10.97
2023-04-01T01:36:38.164Z,10.97
2023-04-01T01:39:10.657Z,10.97
2023-04-01T01:41:43.076Z,10.96
2023-04-01T01:44:14.962Z,10.96
2023-04-01T01:46:44.659Z,10.97
2023-04-01T01:49:15.962Z,10.97
2023-04-01T01:51:43.996Z,10.98
2023-04-01T01:54:14.926Z,10.97
2023-04-01T01:56:45.910Z,10.98
2023-04-01T01:59:16.124Z,10.96
2023-04-01T02:01:50.245Z,10.94
2023-04-01T02:04:20.554Z,10.92
2023-04-01T02:06:54.221Z,10.91
2023-04-01T02:09:22.760Z,10.90
2023-04-01T02:11:56.042Z,10.89
2023-04-01T02:14:26.907Z,10.88
2023-04-01T02:16:58.760Z,10.87
2023-04-01T02:19:32.281Z,10.85
2023-04-01T02:22:04.741Z,10.85
2023-04-01T02:24:36.182Z,10.86
2023-04-01T02:27:05.123Z,10.86
2023-04-01T02:29:36.113Z,10.87
2023-04-01T02:32:09.906Z,10.86
2023-04-01T02:34:38.033Z,10.86
2023-04-01T02:37:06.017Z,10.84
2023-04-01T02:39:34.064Z,10.83
2023-04-01T02:42:02.138Z,10.83
2023-04-01T02:44:30.808Z,10.82
2023-04-01T02:47:00.548Z,10.83
2023-04-01T02:49:28.636Z,10.82
2023-04-01T02:51:56.577Z,10.78
2023-04-01T02:54:24.509Z,10.78
2023-04-01T02:56:52.802Z,10.79
2023-04-01T02:59:20.844Z,10.78
2023-04-01T03:01:48.826Z,10.79
2023-04-01T03:04:16.902Z,10.79
2023-04-01T03:06:45.014Z,10.78
2023-04-01T03:09:13.006Z,10.78
2023-04-01T03:11:41.370Z,10.77
2023-04-01T03:14:09.341Z,10.77
2023-04-01T03:16:37.393Z,10.75
2023-04-01T03:19:05.458Z,10.75
2023-04-01T03:21:33.671Z,10.74
2023-04-01T03:24:02.534Z,10.73
2023-04-01T03:26:30.800Z,10.71
2023-04-01T03:28:59.546Z,10.69
2023-04-01T03:31:27.642Z,10.68
2023-04-01T03:33:56.749Z,10.66
2023-04-01T03:36:24.814Z,10.64
2023-04-01T03:38:53.018Z,10.64
2023-04-01T03:41:23.979Z,10.63
2023-04-01T03:43:52.012Z,10.62
2023-04-01T03:46:20.651Z,10.61
2023-04-01T03:48:48.732Z,10.61
2023-04-01T03:51:16.647Z,10.61
2023-04-01T03:53:45.142Z,10.61
2023-04-01T03:56:13.812Z,10.60
2023-04-01T03:58:42.639Z,10.59
2023-04-01T04:01:20.439Z,10.58
2023-04-01T04:03:50.172Z,10.56
2023-04-01T04:06:19.832Z,10.54
2023-04-01T04:08:48.904Z,10.52
2023-04-01T04:11:17.694Z,10.52
2023-04-01T04:13:45.858Z,10.53
2023-04-01T04:16:14.446Z,10.51
2023-04-01T04:18:45.837Z,10.51
2023-04-01T04:21:15.340Z,10.49
2023-04-01T04:23:44.113Z,10.49
2023-04-01T04:26:14.353Z,10.46
2023-04-01T04:28:43.155Z,10.44
2023-04-01T04:31:11.282Z,10.42
2023-04-01T04:33:42.814Z,10.42
2023-04-01T04:36:11.023Z,10.41
2023-04-01T04:38:39.109Z,10.42
2023-04-01T04:41:12.139Z,10.42
2023-04-01T04:43:40.712Z,10.39
2023-04-01T04:46:08.973Z,10.38
2023-04-01T04:48:37.286Z,10.39
2023-04-01T04:51:05.763Z,10.40
2023-04-01T04:53:34.161Z,10.41
2023-04-01T04:56:02.326Z,10.41
2023-04-01T04:58:40.327Z,10.42
2023-04-01T05:01:11.325Z,10.42
2023-04-01T05:03:40.574Z,10.43
2023-04-01T05:06:11.095Z,10.43
2023-04-01T05:08:39.832Z,10.44
2023-04-01T05:11:13.848Z,10.46
2023-04-01T05:13:43.620Z,10.46
2023-04-01T05:16:12.586Z,10.46
2023-04-01T05:18:41.550Z,10.47
2023-04-01T05:21:11.564Z,10.48
2023-04-01T05:23:39.878Z,10.48
2023-04-01T05:26:10.601Z,10.48
2023-04-01T05:28:39.130Z,10.49
2023-04-01T05:31:08.518Z,10.49
2023-04-01T05:33:40.239Z,10.52
2023-04-01T05:36:11.136Z,10.55
2023-04-01T05:38:40.096Z,10.59
2023-04-01T05:41:10.268Z,10.65
2023-04-01T05:43:42.297Z,10.72
2023-04-01T05:46:29.503Z,10.84
2023-04-01T05:49:21.869Z,10.96
2023-04-01T05:51:51.836Z,11.03
2023-04-01T05:54:20.491Z,11.13
2023-04-01T05:56:49.091Z,11.29
2023-04-01T05:59:19.216Z,11.51
2023-04-01T06:01:47.913Z,11.99
2023-04-01T06:04:17.795Z,12.33
2023-04-01T06:06:46.670Z,12.63
2023-04-01T06:09:31.976Z,12.91
2023-04-01T06:12:17.719Z,13.47
2023-04-01T06:15:27.605Z,13.83
2023-04-01T06:18:54.086Z,13.91
2023-04-01T06:22:15.110Z,13.85
2023-04-01T06:25:13.892Z,13.70
2023-04-01T06:28:01.817Z,13.58
2023-04-01T06:30:41.156Z,13.45
2023-04-01T06:33:33.052Z,13.31
2023-04-01T06:48:08.386Z,13.32
2023-04-01T06:51:04.763Z,13.33
2023-04-01T06:54:17.108Z,13.37
2023-04-01T06:57:29.951Z,13.40
2023-04-01T07:00:07.825Z,13.41
2023-04-01T07:02:45.370Z,13.43
2023-04-01T07:05:17.768Z,13.52
2023-04-01T07:10:48.294Z,13.77
2023-04-01T07:13:51.151Z,13.86
2023-04-01T07:16:28.375Z,13.88
2023-04-01T07:19:04.346Z,13.90
2023-04-01T07:21:52.567Z,13.93
2023-04-01T07:24:34.604Z,13.97
2023-04-01T07:27:13.874Z,14.07
2023-04-01T07:29:45.902Z,14.19
2023-04-01T07:32:26.339Z,14.31
2023-04-01T07:35:11.596Z,14.37
2023-04-01T07:37:55.922Z,14.37
2023-04-01T07:40:39.903Z,14.35
2023-04-01T07:44:07.697Z,14.26
2023-04-01T07:51:10.671Z,14.09
2023-04-01T07:54:37.764Z,14.04
2023-04-01T08:01:59.088Z,14.02
2023-04-01T08:09:23.299Z,13.89
2023-04-01T08:17:05.146Z,13.75
2023-04-01T08:19:57.633Z,13.70
2023-04-01T08:23:20.600Z,13.67
2023-04-01T08:25:58.982Z,13.66
2023-04-01T08:28:38.574Z,13.64
2023-04-01T08:31:19.077Z,13.72
2023-04-01T08:33:56.029Z,13.93
2023-04-01T08:36:32.528Z,14.15
2023-04-01T08:39:45.525Z,14.39
2023-04-01T08:42:49.424Z,14.62
2023-04-01T08:45:57.241Z,14.90
2023-04-01T08:48:53.285Z,15.07
2023-04-01T08:51:44.507Z,15.18
2023-04-01T08:54:47.051Z,15.29
2023-04-01T08:57:34.300Z,15.30
2023-04-01T09:00:50.567Z,15.18
2023-04-01T09:04:01.006Z,15.08
2023-04-01T09:06:43.398Z,14.96
2023-04-01T09:09:46.536Z,14.87
2023-04-01T09:12:38.719Z,14.70
2023-04-01T09:15:28.249Z,14.48
2023-04-01T09:18:49.507Z,14.31
2023-04-01T09:21:53.485Z,14.12
2023-04-01T09:24:51.822Z,14.00
2023-04-01T09:27:32.860Z,13.94
2023-04-01T09:30:37.442Z,13.88
2023-04-01T09:33:48.891Z,13.81
2023-04-01T09:36:38.366Z,13.71
2023-04-01T09:39:37.847Z,13.63
2023-04-01T09:42:29.980Z,13.61
2023-04-01T09:45:26.052Z,13.61
2023-04-01T09:48:04.555Z,13.60
2023-04-01T09:50:44.539Z,13.59
2023-04-01T09:53:28.955Z,13.62
2023-04-01T09:56:42.901Z,13.65
2023-04-01T09:59:34.523Z,13.67
2023-04-01T10:03:06.086Z,13.67
2023-04-01T10:06:03.605Z,13.72
2023-04-01T10:08:52.891Z,13.74
2023-04-01T10:11:47.157Z,13.75
2023-04-01T10:14:44.541Z,13.75
2023-04-01T10:17:50.945Z,13.73
2023-04-01T10:20:56.681Z,13.69
2023-04-01T10:23:40.997Z,13.66
2023-04-01T10:26:55.093Z,13.65
2023-04-01T10:30:20.688Z,13.75
2023-04-01T10:33:40.495Z,13.93
2023-04-01T10:36:32.727Z,14.15
2023-04-01T10:39:35.106Z,14.30
2023-04-01T10:43:05.827Z,14.44
2023-04-01T10:46:18.908Z,14.61
2023-04-01T10:49:24.534Z,14.70
2023-04-01T10:52:20.540Z,14.70
2023-04-01T10:55:34.582Z,14.69
2023-04-01T10:58:51.158Z,14.67
2023-04-01T11:02:10.023Z,14.64
2023-04-01T11:05:36.441Z,14.53
2023-04-01T11:08:59.595Z,14.40
2023-04-01T11:11:59.905Z,14.23
2023-04-01T11:15:07.913Z,14.11
2023-04-01T11:18:10.901Z,14.02
2023-04-01T11:21:15.958Z,13.94
2023-04-01T11:24:13.366Z,13.88
2023-04-01T11:27:00.242Z,13.84
2023-04-01T11:30:08.033Z,13.82
2023-04-01T11:32:47.191Z,13.80
2023-04-01T11:35:36.290Z,13.77
2023-04-01T11:38:24.740Z,13.75
2023-04-01T11:41:01.638Z,13.74
2023-04-01T11:44:21.184Z,13.77
2023-04-01T11:48:01.320Z,13.84
2023-04-01T11:50:49.324Z,13.93
2023-04-01T11:53:37.470Z,14.00
2023-04-01T11:56:20.569Z,14.10
2023-04-01T11:59:27.579Z,14.20
2023-04-01T12:02:28.954Z,14.32
2023-04-01T12:05:10.219Z,14.42
2023-04-01T12:08:02.893Z,14.50
2023-04-01T12:10:40.900Z,14.61
2023-04-01T12:13:23.273Z,14.73
2023-04-01T12:16:09.938Z,14.85
2023-04-01T12:18:45.341Z,14.91
2023-04-01T12:21:28.197Z,14.96
2023-04-01T12:24:27.641Z,15.02
2023-04-01T12:27:14.603Z,15.12
2023-04-01T12:30:15.838Z,15.21
2023-04-01T12:32:57.544Z,15.24
2023-04-01T12:35:32.849Z,15.25
2023-04-01T12:38:23.751Z,15.26
2023-04-01T12:41:05.608Z,15.29
2023-04-01T12:44:09.252Z,15.29
2023-04-01T12:47:02.132Z,15.31
2023-04-01T12:49:47.926Z,15.36
2023-04-01T12:52:30.323Z,15.39
2023-04-01T12:55:25.534Z,15.44
2023-04-01T12:58:28.416Z,15.44
2023-04-01T13:01:35.193Z,15.40
2023-04-01T13:04:32.446Z,15.35
2023-04-01T13:07:21.559Z,15.31
2023-04-01T13:10:10.170Z,15.21
2023-04-01T13:13:01.213Z,15.08
2023-04-01T13:15:39.832Z,14.91
2023-04-01T13:18:30.424Z,14.75
2023-04-01T13:21:27.791Z,14.54
2023-04-01T13:24:14.185Z,14.32
2023-04-01T13:27:03.785Z,14.10
2023-04-01T13:29:38.413Z,13.88
2023-04-01T13:32:42.476Z,13.73
2023-04-01T13:35:26.143Z,13.60
2023-04-01T13:38:18.093Z,13.52
2023-04-01T13:41:03.699Z,13.46
2023-04-01T13:43:39.820Z,13.42
2023-04-01T13:46:26.014Z,13.41
2023-04-01T13:49:30.891Z,13.38
2023-04-01T13:52:16.002Z,13.33
2023-04-01T13:55:22.570Z,13.25
2023-04-01T13:58:20.800Z,13.13
2023-04-01T14:01:07.748Z,13.03
2023-04-01T14:03:52.767Z,12.93
2023-04-01T14:06:43.179Z,12.81
2023-04-01T14:10:01.265Z,12.70
2023-04-01T14:12:44.856Z,12.59
2023-04-01T14:15:40.079Z,12.51
2023-04-01T14:18:34.470Z,12.45
2023-04-01T14:21:32.100Z,12.43
2023-04-01T14:24:17.626Z,12.39
2023-04-01T14:27:16.004Z,12.34
2023-04-01T14:30:00.666Z,12.25
2023-04-01T14:32:45.964Z,12.15
2023-04-01T14:35:45.157Z,12.03
2023-04-01T14:38:52.634Z,11.92
2023-04-01T14:41:46.576Z,11.86
2023-04-01T14:44:47.931Z,11.81
2023-04-01T14:47:44.685Z,11.77
2023-04-01T14:50:19.373Z,11.74
2023-04-01T14:52:59.058Z,11.68
2023-04-01T14:55:45.319Z,11.62
2023-04-01T14:58:19.524Z,11.55
2023-04-01T15:01:02.922Z,11.46
2023-04-01T15:03:41.799Z,11.38
2023-04-01T15:06:47.998Z,11.32
2023-04-01T15:09:29.510Z,11.27
2023-04-01T15:12:11.764Z,11.25
2023-04-01T15:14:50.389Z,11.24
2023-04-01T15:17:36.078Z,11.22
2023-04-01T15:20:27.888Z,11.19
2023-04-01T15:23:23.232Z,11.18
2023-04-01T15:26:22.252Z,11.17
2023-04-01T15:29:28.457Z,11.14
2023-04-01T15:32:04.563Z,11.12
2023-04-01T15:34:46.246Z,11.10
2023-04-01T15:37:27.629Z,11.08
2023-04-01T15:40:15.505Z,11.06
2023-04-01T15:43:05.551Z,11.04
2023-04-01T15:45:52.036Z,11.02
2023-04-01T15:48:45.785Z,11.01
2023-04-01T15:51:36.156Z,11.01
2023-04-01T15:54:59.705Z,11.00
2023-04-01T15:57:38.078Z,10.98
2023-04-01T16:00:30.968Z,10.97
2023-04-01T16:03:29.467Z,10.95
2023-04-01T16:06:28.020Z,10.94
2023-04-01T16:09:24.291Z,10.94
2023-04-01T16:12:07.627Z,10.95
2023-04-01T16:14:53.809Z,10.96
2023-04-01T16:17:45.670Z,10.95
2023-04-01T16:20:43.407Z,10.95
2023-04-01T16:23:21.261Z,10.93
2023-04-01T16:26:01.776Z,10.91
2023-04-01T16:28:50.710Z,10.88
2023-04-01T16:31:35.842Z,10.85
2023-04-01T16:34:12.682Z,10.80
2023-04-01T16:36:49.091Z,10.76
2023-04-01T16:39:41.916Z,10.74
2023-04-01T16:45:23.567Z,10.71
2023-04-01T16:48:00.596Z,10.69
2023-04-01T16:50:47.779Z,10.67
2023-04-01T16:53:24.652Z,10.64
2023-04-01T16:56:06.530Z,10.61
2023-04-01T16:58:42.002Z,10.58
2023-04-01T17:01:18.551Z,10.57
2023-04-01T17:03:53.867Z,10.55
2023-04-01T17:06:33.918Z,10.52
2023-04-01T17:09:22.299Z,10.48
2023-04-01T17:12:07.828Z,10.46
2023-04-01T17:14:41.071Z,10.42
2023-04-01T17:17:35.436Z,10.40
2023-04-01T17:20:28.965Z,10.37
2023-04-01T17:23:07.920Z,10.34
2023-04-01T17:25:57.084Z,10.33
2023-04-01T17:28:42.692Z,10.30
2023-04-01T17:31:17.237Z,10.25
2023-04-01T17:34:18.487Z,10.21
2023-04-01T17:37:10.504Z,10.17
2023-04-01T17:40:01.704Z,10.13
2023-04-01T17:42:45.044Z,10.09
2023-04-01T17:45:27.015Z,10.06
2023-04-01T17:48:06.195Z,10.02
2023-04-01T17:50:55.006Z,10.00
2023-04-01T17:53:37.905Z,9.98
2023-04-01T17:56:24.190Z,9.96
2023-04-01T17:59:02.429Z,9.93
2023-04-01T18:01:47.878Z,9.90
2023-04-01T18:04:50.410Z,9.88
2023-04-01T18:08:05.348Z,9.85
2023-04-01T18:10:44.307Z,9.81
2023-04-01T18:13:53.816Z,9.79
2023-04-01T18:16:36.349Z,9.76
2023-04-01T18:19:20.630Z,9.74
2023-04-01T18:21:56.355Z,9.72
2023-04-01T18:24:35.731Z,9.71
2023-04-01T18:27:23.080Z,9.69
2023-04-01T18:29:59.122Z,9.66
2023-04-01T18:32:37.943Z,9.63
2023-04-01T18:35:29.039Z,9.62
2023-04-01T18:38:08.651Z,9.61
2023-04-01T18:40:44.769Z,9.58
2023-04-01T18:43:23.621Z,9.54
2023-04-01T18:46:04.130Z,9.54
2023-04-01T18:48:53.476Z,9.55
2023-04-01T18:51:40.660Z,9.54
2023-04-01T18:54:18.111Z,9.52
2023-04-01T18:56:49.933Z,9.50
2023-04-01T18:59:29.847Z,9.49
2023-04-01T19:02:12.067Z,9.47
2023-04-01T19:04:51.519Z,9.44
2023-04-01T19:07:44.497Z,9.41
2023-04-01T19:10:29.043Z,9.39
2023-04-01T19:13:11.821Z,9.38
2023-04-01T19:15:52.423Z,9.35
2023-04-01T19:19:04.850Z,9.34
2023-04-01T19:21:39.455Z,9.33
2023-04-01T19:24:38.413Z,9.33
2023-04-01T19:27:18.040Z,9.32
2023-04-01T19:30:04.675Z,9.30
2023-04-01T19:32:46.458Z,9.30
2023-04-01T19:35:27.189Z,9.29
2023-04-01T19:38:06.344Z,9.29
2023-04-01T19:40:47.444Z,9.28
2023-04-01T19:43:34.374Z,9.27
2023-04-01T19:46:13.091Z,9.23
2023-04-01T19:48:53.672Z,9.22
2023-04-01T19:51:33.847Z,9.19
2023-04-01T19:54:13.491Z,9.15
2023-04-01T19:56:49.881Z,9.12
2023-04-01T19:59:27.378Z,9.11
2023-04-01T20:02:03.941Z,9.11
2023-04-01T20:04:43.009Z,9.11
2023-04-01T20:07:21.370Z,9.12
2023-04-01T20:10:00.961Z,9.13
2023-04-01T20:12:46.046Z,9.15
2023-04-01T20:15:33.974Z,9.17
2023-04-01T20:18:14.654Z,9.16
2023-04-01T20:20:58.713Z,9.17
2023-04-01T20:23:41.625Z,9.17
2023-04-01T20:26:14.043Z,9.15
2023-04-01T20:29:00.123Z,9.14
2023-04-01T20:31:36.432Z,9.12
2023-04-01T20:34:25.553Z,9.11
2023-04-01T20:37:12.947Z,9.12
2023-04-01T20:40:09.059Z,9.07
2023-04-01T20:42:55.409Z,9.05
2023-04-01T20:45:36.619Z,9.01
2023-04-01T20:48:26.475Z,8.96
2023-04-01T20:51:01.552Z,8.93
2023-04-01T20:53:39.776Z,8.87
2023-04-01T20:56:26.676Z,8.84
2023-04-01T20:59:05.245Z,8.81
2023-04-01T21:01:46.147Z,8.77
2023-04-01T21:04:30.905Z,8.74
2023-04-01T21:07:30.448Z,8.71
2023-04-01T21:10:16.631Z,8.66
2023-04-01T21:12:54.898Z,8.64
2023-04-01T21:15:47.378Z,8.63
2023-04-01T21:18:37.723Z,8.62
2023-04-01T21:21:29.036Z,8.60
2023-04-01T21:24:29.103Z,8.61
2023-04-01T21:27:09.617Z,8.61
2023-04-01T21:29:58.823Z,8.61
2023-04-01T21:32:44.005Z,8.61
2023-04-01T21:35:28.150Z,8.61
2023-04-01T21:38:28.571Z,8.60
2023-04-01T21:41:29.669Z,8.60
2023-04-01T21:44:37.022Z,8.59
2023-04-01T21:47:52.622Z,8.58
2023-04-01T21:51:05.469Z,8.58
2023-04-01T21:54:24.184Z,8.57
2023-04-01T21:57:24.904Z,8.57
2023-04-01T22:00:17.514Z,8.56
2023-04-01T22:03:30.743Z,8.54
2023-04-01T22:06:24.056Z,8.54
2023-04-01T22:09:07.698Z,8.53
2023-04-01T22:11:55.305Z,8.54
2023-04-01T22:14:36.013Z,8.53
2023-04-01T22:17:20.149Z,8.50
2023-04-01T22:20:09.914Z,8.46
2023-04-01T22:23:02.017Z,8.41
2023-04-01T22:25:43.243Z,8.38
2023-04-01T22:28:21.758Z,8.33
2023-04-01T22:30:54.794Z,8.27
2023-04-01T22:33:35.423Z,8.22
2023-04-01T22:36:20.005Z,8.19
2023-04-01T22:39:04.435Z,8.17
2023-04-01T22:41:52.947Z,8.16
2023-04-01T22:44:37.961Z,8.14
2023-04-01T22:47:16.308Z,8.14
2023-04-01T22:49:51.704Z,8.12
2023-04-01T22:52:32.941Z,8.10
2023-04-01T22:55:10.444Z,8.09
2023-04-01T22:57:46.931Z,8.07
2023-04-01T23:00:23.536Z,8.06
2023-04-01T23:03:09.111Z,8.03
2023-04-01T23:05:48.233Z,8.00
2023-04-01T23:08:50.148Z,7.97
2023-04-01T23:11:26.871Z,7.94
2023-04-01T23:14:27.637Z,7.90
2023-04-01T23:17:04.532Z,7.87
2023-04-01T23:19:40.023Z,7.86
2023-04-01T23:22:23.325Z,7.86
2023-04-01T23:25:00.573Z,7.87
2023-04-01T23:27:38.260Z,7.86
2023-04-01T23:30:51.480Z,7.87
2023-04-01T23:33:29.459Z,7.87
2023-04-01T23:36:06.409Z,7.89
2023-04-01T23:38:40.555Z,7.90
2023-04-01T23:41:19.942Z,7.91
2023-04-01T23:43:57.690Z,7.90
2023-04-01T23:46:30.664Z,7.90
2023-04-01T23:49:02.819Z,7.89
2023-04-01T23:51:48.544Z,7.87
2023-04-01T23:54:19.680Z,7.87
2023-04-01T23:56:54.339Z,7.86
2023-04-01T23:59:30.072Z,7.85
